sensor_id;sensor_type;location;lat;lon;timestamp;P1;durP1;ratioP1;P2;durP2;ratioP2
21769;SDS011;11046;49.558;8.674;2023-06-19T00:01:59;10.60;;;7.13;;
21769;SDS011;11046;49.558;8.674;2023-06-19T00:04:59;14.27;;;7.22;;
21769;SDS011;11046;49.558;8.674;2023-06-19T00:08:00;8.55;;;7.45;;
21769;SDS011;11046;49.558;8.674;2023-06-19T00:11:03;9.95;;;7.30;;
21769;SDS011;11046;49.558;8.674;2023-06-19T00:14:04;10.23;;;7.30;;
21769;SDS011;11046;49.558;8.674;2023-06-19T00:17:04;9.98;;;7.35;;
21769;SDS011;11046;49.558;8.674;2023-06-19T00:20:06;8.88;;;7.15;;
21769;SDS011;11046;49.558;8.674;2023-06-19T00:23:07;12.95;;;7.75;;
21769;SDS011;11046;49.558;8.674;2023-06-19T00:26:11;10.13;;;7.15;;
21769;SDS011;11046;49.558;8.674;2023-06-19T00:29:14;11.00;;;7.63;;
21769;SDS011;11046;49.558;8.674;2023-06-19T00:32:15;8.07;;;6.78;;
21769;SDS011;11046;49.558;8.674;2023-06-19T00:35:16;8.73;;;6.60;;
21769;SDS011;11046;49.558;8.674;2023-06-19T00:38:18;10.45;;;7.45;;
21769;SDS011;11046;49.558;8.674;2023-06-19T00:41:18;9.88;;;7.22;;
21769;SDS011;11046;49.558;8.674;2023-06-19T00:44:20;8.73;;;7.30;;
21769;SDS011;11046;49.558;8.674;2023-06-19T00:47:21;9.70;;;7.05;;
21769;SDS011;11046;49.558;8.674;2023-06-19T00:50:22;11.02;;;7.50;;
21769;SDS011;11046;49.558;8.674;2023-06-19T00:53:23;9.60;;;7.20;;
21769;SDS011;11046;49.558;8.674;2023-06-19T00:56:25;8.85;;;7.07;;
21769;SDS011;11046;49.558;8.674;2023-06-19T00:59:26;9.07;;;7.35;;
21769;SDS011;11046;49.558;8.674;2023-06-19T01:02:27;10.10;;;7.47;;
21769;SDS011;11046;49.558;8.674;2023-06-19T01:05:28;13.18;;;7.50;;
21769;SDS011;11046;49.558;8.674;2023-06-19T01:11:51;10.05;;;7.18;;
21769;SDS011;11046;49.558;8.674;2023-06-19T01:15:01;8.32;;;7.20;;
21769;SDS011;11046;49.558;8.674;2023-06-19T01:18:03;11.65;;;7.43;;
21769;SDS011;11046;49.558;8.674;2023-06-19T01:21:14;9.30;;;7.13;;
21769;SDS011;11046;49.558;8.674;2023-06-19T01:24:16;11.35;;;7.65;;
21769;SDS011;11046;49.558;8.674;2023-06-19T01:27:16;8.43;;;7.30;;
21769;SDS011;11046;49.558;8.674;2023-06-19T01:30:18;10.02;;;7.53;;
21769;SDS011;11046;49.558;8.674;2023-06-19T01:33:26;9.88;;;7.93;;
21769;SDS011;11046;49.558;8.674;2023-06-19T01:36:28;9.88;;;7.55;;
21769;SDS011;11046;49.558;8.674;2023-06-19T01:39:33;9.43;;;7.55;;
21769;SDS011;11046;49.558;8.674;2023-06-19T01:42:37;8.73;;;7.20;;
21769;SDS011;11046;49.558;8.674;2023-06-19T01:45:38;11.45;;;7.82;;
21769;SDS011;11046;49.558;8.674;2023-06-19T01:48:40;11.15;;;8.00;;
21769;SDS011;11046;49.558;8.674;2023-06-19T01:51:40;11.10;;;8.50;;
21769;SDS011;11046;49.558;8.674;2023-06-19T01:54:41;11.18;;;8.48;;
21769;SDS011;11046;49.558;8.674;2023-06-19T01:57:42;9.93;;;8.07;;
21769;SDS011;11046;49.558;8.674;2023-06-19T02:00:42;13.45;;;8.98;;
21769;SDS011;11046;49.558;8.674;2023-06-19T02:03:43;14.60;;;10.20;;
21769;SDS011;11046;49.558;8.674;2023-06-19T02:06:44;13.32;;;9.25;;
21769;SDS011;11046;49.558;8.674;2023-06-19T02:09:44;10.93;;;9.40;;
21769;SDS011;11046;49.558;8.674;2023-06-19T02:12:45;13.82;;;9.45;;
21769;SDS011;11046;49.558;8.674;2023-06-19T02:15:45;11.80;;;9.38;;
21769;SDS011;11046;49.558;8.674;2023-06-19T02:18:46;13.95;;;9.65;;
21769;SDS011;11046;49.558;8.674;2023-06-19T02:21:47;13.70;;;10.68;;
21769;SDS011;11046;49.558;8.674;2023-06-19T02:24:48;11.00;;;9.48;;
21769;SDS011;11046;49.558;8.674;2023-06-19T02:27:48;10.90;;;9.25;;
21769;SDS011;11046;49.558;8.674;2023-06-19T02:30:49;10.00;;;8.55;;
21769;SDS011;11046;49.558;8.674;2023-06-19T02:33:50;11.52;;;8.35;;
21769;SDS011;11046;49.558;8.674;2023-06-19T02:36:53;10.10;;;8.23;;
21769;SDS011;11046;49.558;8.674;2023-06-19T02:39:53;9.52;;;8.35;;
21769;SDS011;11046;49.558;8.674;2023-06-19T02:42:54;10.60;;;7.97;;
21769;SDS011;11046;49.558;8.674;2023-06-19T02:45:54;12.05;;;8.25;;
21769;SDS011;11046;49.558;8.674;2023-06-19T02:48:55;9.85;;;8.00;;
21769;SDS011;11046;49.558;8.674;2023-06-19T02:51:56;10.50;;;7.50;;
21769;SDS011;11046;49.558;8.674;2023-06-19T02:54:56;10.13;;;8.02;;
21769;SDS011;11046;49.558;8.674;2023-06-19T02:57:57;9.13;;;6.90;;
21769;SDS011;11046;49.558;8.674;2023-06-19T03:00:58;10.25;;;7.68;;
21769;SDS011;11046;49.558;8.674;2023-06-19T03:03:58;9.43;;;7.30;;
21769;SDS011;11046;49.558;8.674;2023-06-19T03:06:59;7.60;;;6.68;;
21769;SDS011;11046;49.558;8.674;2023-06-19T03:09:59;9.10;;;6.90;;
21769;SDS011;11046;49.558;8.674;2023-06-19T03:13:00;8.23;;;6.53;;
21769;SDS011;11046;49.558;8.674;2023-06-19T03:16:01;12.43;;;7.97;;
21769;SDS011;11046;49.558;8.674;2023-06-19T03:19:02;9.30;;;6.38;;
21769;SDS011;11046;49.558;8.674;2023-06-19T03:22:02;9.10;;;6.15;;
21769;SDS011;11046;49.558;8.674;2023-06-19T03:25:03;7.45;;;6.28;;
21769;SDS011;11046;49.558;8.674;2023-06-19T03:28:04;7.70;;;6.30;;
21769;SDS011;11046;49.558;8.674;2023-06-19T03:31:05;7.47;;;6.07;;
21769;SDS011;11046;49.558;8.674;2023-06-19T03:34:06;8.18;;;6.05;;
21769;SDS011;11046;49.558;8.674;2023-06-19T03:37:09;7.82;;;5.82;;
21769;SDS011;11046;49.558;8.674;2023-06-19T03:40:10;7.88;;;6.63;;
21769;SDS011;11046;49.558;8.674;2023-06-19T03:43:15;7.88;;;5.93;;
21769;SDS011;11046;49.558;8.674;2023-06-19T03:46:17;6.38;;;5.72;;
21769;SDS011;11046;49.558;8.674;2023-06-19T03:49:18;6.60;;;5.25;;
21769;SDS011;11046;49.558;8.674;2023-06-19T03:52:19;6.50;;;4.50;;
21769;SDS011;11046;49.558;8.674;2023-06-19T03:55:19;4.68;;;4.07;;
21769;SDS011;11046;49.558;8.674;2023-06-19T03:58:20;4.10;;;3.50;;
21769;SDS011;11046;49.558;8.674;2023-06-19T04:01:20;4.97;;;3.90;;
21769;SDS011;11046;49.558;8.674;2023-06-19T04:04:22;4.80;;;3.92;;
21769;SDS011;11046;49.558;8.674;2023-06-19T04:07:23;5.63;;;3.97;;
21769;SDS011;11046;49.558;8.674;2023-06-19T04:10:23;4.40;;;3.80;;
21769;SDS011;11046;49.558;8.674;2023-06-19T04:13:24;4.45;;;3.80;;
21769;SDS011;11046;49.558;8.674;2023-06-19T04:16:26;3.90;;;3.50;;
21769;SDS011;11046;49.558;8.674;2023-06-19T04:19:26;5.38;;;3.47;;
21769;SDS011;11046;49.558;8.674;2023-06-19T04:22:27;3.80;;;3.00;;
21769;SDS011;11046;49.558;8.674;2023-06-19T04:25:28;4.05;;;3.40;;
21769;SDS011;11046;49.558;8.674;2023-06-19T04:28:30;3.75;;;3.13;;
21769;SDS011;11046;49.558;8.674;2023-06-19T04:31:30;4.22;;;3.00;;
21769;SDS011;11046;49.558;8.674;2023-06-19T04:34:31;3.65;;;3.00;;
21769;SDS011;11046;49.558;8.674;2023-06-19T04:37:32;4.30;;;3.17;;
21769;SDS011;11046;49.558;8.674;2023-06-19T04:40:32;4.18;;;3.33;;
21769;SDS011;11046;49.558;8.674;2023-06-19T04:43:33;4.53;;;3.50;;
21769;SDS011;11046;49.558;8.674;2023-06-19T04:46:34;5.15;;;3.78;;
21769;SDS011;11046;49.558;8.674;2023-06-19T04:49:34;4.18;;;3.30;;
21769;SDS011;11046;49.558;8.674;2023-06-19T04:52:35;3.97;;;3.30;;
21769;SDS011;11046;49.558;8.674;2023-06-19T04:55:36;3.60;;;3.28;;
21769;SDS011;11046;49.558;8.674;2023-06-19T04:58:37;8.13;;;3.85;;
21769;SDS011;11046;49.558;8.674;2023-06-19T05:01:45;4.95;;;3.40;;
21769;SDS011;11046;49.558;8.674;2023-06-19T05:04:46;7.47;;;2.95;;
21769;SDS011;11046;49.558;8.674;2023-06-19T05:07:46;4.10;;;3.13;;
21769;SDS011;11046;49.558;8.674;2023-06-19T05:10:47;3.47;;;3.05;;
21769;SDS011;11046;49.558;8.674;2023-06-19T05:13:48;3.92;;;3.40;;
21769;SDS011;11046;49.558;8.674;2023-06-19T05:16:48;6.05;;;3.22;;
21769;SDS011;11046;49.558;8.674;2023-06-19T05:19:49;3.85;;;3.00;;
21769;SDS011;11046;49.558;8.674;2023-06-19T05:22:50;3.97;;;3.00;;
21769;SDS011;11046;49.558;8.674;2023-06-19T05:25:51;4.78;;;3.38;;
21769;SDS011;11046;49.558;8.674;2023-06-19T05:28:51;3.97;;;3.20;;
21769;SDS011;11046;49.558;8.674;2023-06-19T05:31:52;3.67;;;3.10;;
21769;SDS011;11046;49.558;8.674;2023-06-19T05:34:53;3.40;;;3.10;;
21769;SDS011;11046;49.558;8.674;2023-06-19T05:37:53;3.60;;;3.08;;
21769;SDS011;11046;49.558;8.674;2023-06-19T05:40:54;5.05;;;3.38;;
21769;SDS011;11046;49.558;8.674;2023-06-19T05:43:54;4.22;;;3.15;;
21769;SDS011;11046;49.558;8.674;2023-06-19T05:46:55;5.95;;;3.05;;
21769;SDS011;11046;49.558;8.674;2023-06-19T05:49:56;6.88;;;3.72;;
21769;SDS011;11046;49.558;8.674;2023-06-19T05:52:57;4.18;;;3.30;;
21769;SDS011;11046;49.558;8.674;2023-06-19T05:55:58;3.65;;;3.13;;
21769;SDS011;11046;49.558;8.674;2023-06-19T05:58:59;3.45;;;2.95;;
21769;SDS011;11046;49.558;8.674;2023-06-19T06:02:02;3.53;;;3.22;;
21769;SDS011;11046;49.558;8.674;2023-06-19T06:05:03;4.68;;;3.10;;
21769;SDS011;11046;49.558;8.674;2023-06-19T06:08:04;6.50;;;3.25;;
21769;SDS011;11046;49.558;8.674;2023-06-19T06:11:05;4.93;;;3.03;;
21769;SDS011;11046;49.558;8.674;2023-06-19T06:14:05;4.30;;;3.00;;
21769;SDS011;11046;49.558;8.674;2023-06-19T06:17:06;4.30;;;2.78;;
21769;SDS011;11046;49.558;8.674;2023-06-19T06:20:07;5.63;;;3.00;;
21769;SDS011;11046;49.558;8.674;2023-06-19T06:23:11;11.20;;;3.15;;
21769;SDS011;11046;49.558;8.674;2023-06-19T06:26:12;4.40;;;3.30;;
21769;SDS011;11046;49.558;8.674;2023-06-19T06:29:12;3.50;;;3.20;;
21769;SDS011;11046;49.558;8.674;2023-06-19T06:32:13;5.13;;;2.90;;
21769;SDS011;11046;49.558;8.674;2023-06-19T06:35:13;3.53;;;3.17;;
21769;SDS011;11046;49.558;8.674;2023-06-19T06:38:14;5.43;;;3.47;;
21769;SDS011;11046;49.558;8.674;2023-06-19T06:41:15;4.22;;;3.35;;
21769;SDS011;11046;49.558;8.674;2023-06-19T06:44:15;3.60;;;3.30;;
21769;SDS011;11046;49.558;8.674;2023-06-19T06:47:16;8.68;;;3.13;;
21769;SDS011;11046;49.558;8.674;2023-06-19T06:50:16;4.55;;;3.50;;
21769;SDS011;11046;49.558;8.674;2023-06-19T06:53:17;3.90;;;3.50;;
21769;SDS011;11046;49.558;8.674;2023-06-19T06:56:18;4.63;;;3.30;;
21769;SDS011;11046;49.558;8.674;2023-06-19T06:59:18;3.45;;;3.15;;
21769;SDS011;11046;49.558;8.674;2023-06-19T07:02:19;5.00;;;3.50;;
21769;SDS011;11046;49.558;8.674;2023-06-19T07:05:19;4.72;;;3.33;;
21769;SDS011;11046;49.558;8.674;2023-06-19T07:08:20;4.82;;;4.18;;
21769;SDS011;11046;49.558;8.674;2023-06-19T07:11:21;5.60;;;4.00;;
21769;SDS011;11046;49.558;8.674;2023-06-19T07:14:21;7.22;;;3.78;;
21769;SDS011;11046;49.558;8.674;2023-06-19T07:17:22;6.38;;;4.10;;
21769;SDS011;11046;49.558;8.674;2023-06-19T07:20:23;6.13;;;4.03;;
21769;SDS011;11046;49.558;8.674;2023-06-19T07:23:23;4.72;;;3.92;;
21769;SDS011;11046;49.558;8.674;2023-06-19T07:26:24;5.90;;;3.85;;
21769;SDS011;11046;49.558;8.674;2023-06-19T07:29:24;5.68;;;4.30;;
21769;SDS011;11046;49.558;8.674;2023-06-19T07:32:26;5.97;;;4.10;;
21769;SDS011;11046;49.558;8.674;2023-06-19T07:35:27;5.90;;;3.90;;
21769;SDS011;11046;49.558;8.674;2023-06-19T07:38:27;5.28;;;4.10;;
21769;SDS011;11046;49.558;8.674;2023-06-19T07:41:28;5.28;;;3.97;;
21769;SDS011;11046;49.558;8.674;2023-06-19T07:44:28;5.72;;;3.85;;
21769;SDS011;11046;49.558;8.674;2023-06-19T07:47:29;5.43;;;4.40;;
21769;SDS011;11046;49.558;8.674;2023-06-19T07:50:29;4.57;;;4.05;;
21769;SDS011;11046;49.558;8.674;2023-06-19T07:53:31;6.15;;;4.35;;
21769;SDS011;11046;49.558;8.674;2023-06-19T07:56:32;8.25;;;4.35;;
21769;SDS011;11046;49.558;8.674;2023-06-19T07:59:33;5.93;;;4.05;;
21769;SDS011;11046;49.558;8.674;2023-06-19T08:02:34;6.68;;;4.20;;
21769;SDS011;11046;49.558;8.674;2023-06-19T08:05:35;6.30;;;4.15;;
21769;SDS011;11046;49.558;8.674;2023-06-19T08:08:36;5.40;;;3.97;;
21769;SDS011;11046;49.558;8.674;2023-06-19T08:11:37;4.70;;;4.13;;
21769;SDS011;11046;49.558;8.674;2023-06-19T08:14:37;8.02;;;4.70;;
21769;SDS011;11046;49.558;8.674;2023-06-19T08:17:38;5.55;;;4.78;;
21769;SDS011;11046;49.558;8.674;2023-06-19T08:20:39;6.03;;;4.88;;
21769;SDS011;11046;49.558;8.674;2023-06-19T08:23:40;7.60;;;5.10;;
21769;SDS011;11046;49.558;8.674;2023-06-19T08:26:43;5.57;;;4.90;;
21769;SDS011;11046;49.558;8.674;2023-06-19T08:29:44;6.10;;;5.50;;
21769;SDS011;11046;49.558;8.674;2023-06-19T08:32:45;6.65;;;5.65;;
21769;SDS011;11046;49.558;8.674;2023-06-19T08:35:46;7.97;;;5.07;;
21769;SDS011;11046;49.558;8.674;2023-06-19T08:38:49;8.32;;;5.85;;
21769;SDS011;11046;49.558;8.674;2023-06-19T08:41:52;8.10;;;5.30;;
21769;SDS011;11046;49.558;8.674;2023-06-19T08:44:55;9.80;;;5.63;;
21769;SDS011;11046;49.558;8.674;2023-06-19T08:47:59;6.88;;;5.55;;
21769;SDS011;11046;49.558;8.674;2023-06-19T08:51:04;6.43;;;5.22;;
21769;SDS011;11046;49.558;8.674;2023-06-19T08:54:06;7.35;;;5.63;;
21769;SDS011;11046;49.558;8.674;2023-06-19T08:57:10;5.97;;;5.10;;
21769;SDS011;11046;49.558;8.674;2023-06-19T09:00:11;8.32;;;5.20;;
21769;SDS011;11046;49.558;8.674;2023-06-19T09:03:22;5.93;;;5.32;;
21769;SDS011;11046;49.558;8.674;2023-06-19T09:06:25;7.72;;;5.57;;
21769;SDS011;11046;49.558;8.674;2023-06-19T09:09:27;7.15;;;6.13;;
21769;SDS011;11046;49.558;8.674;2023-06-19T09:12:28;8.25;;;6.07;;
21769;SDS011;11046;49.558;8.674;2023-06-19T09:15:36;6.65;;;5.28;;
21769;SDS011;11046;49.558;8.674;2023-06-19T09:18:46;7.10;;;5.90;;
21769;SDS011;11046;49.558;8.674;2023-06-19T09:21:50;7.70;;;6.38;;
21769;SDS011;11046;49.558;8.674;2023-06-19T09:24:52;6.22;;;5.60;;
21769;SDS011;11046;49.558;8.674;2023-06-19T09:27:53;8.23;;;5.72;;
21769;SDS011;11046;49.558;8.674;2023-06-19T09:30:55;6.78;;;5.57;;
21769;SDS011;11046;49.558;8.674;2023-06-19T09:33:56;5.90;;;5.30;;
21769;SDS011;11046;49.558;8.674;2023-06-19T09:36:59;9.13;;;5.32;;
21769;SDS011;11046;49.558;8.674;2023-06-19T09:40:03;7.65;;;5.25;;
21769;SDS011;11046;49.558;8.674;2023-06-19T09:43:10;7.82;;;5.28;;
21769;SDS011;11046;49.558;8.674;2023-06-19T09:46:12;6.70;;;6.00;;
21769;SDS011;11046;49.558;8.674;2023-06-19T09:49:15;7.55;;;6.15;;
21769;SDS011;11046;49.558;8.674;2023-06-19T09:52:18;6.57;;;5.72;;
21769;SDS011;11046;49.558;8.674;2023-06-19T09:55:20;6.80;;;5.78;;
21769;SDS011;11046;49.558;8.674;2023-06-19T09:58:24;6.50;;;5.80;;
21769;SDS011;11046;49.558;8.674;2023-06-19T10:01:27;9.40;;;5.70;;
21769;SDS011;11046;49.558;8.674;2023-06-19T10:04:29;9.27;;;5.50;;
21769;SDS011;11046;49.558;8.674;2023-06-19T10:07:34;8.18;;;6.15;;
21769;SDS011;11046;49.558;8.674;2023-06-19T10:10:35;6.95;;;5.40;;
21769;SDS011;11046;49.558;8.674;2023-06-19T10:13:37;8.98;;;5.18;;
21769;SDS011;11046;49.558;8.674;2023-06-19T10:16:40;6.22;;;5.22;;
21769;SDS011;11046;49.558;8.674;2023-06-19T10:19:48;6.75;;;5.43;;
21769;SDS011;11046;49.558;8.674;2023-06-19T10:26:16;7.18;;;5.38;;
21769;SDS011;11046;49.558;8.674;2023-06-19T10:29:17;6.43;;;5.63;;
21769;SDS011;11046;49.558;8.674;2023-06-19T10:32:17;6.57;;;5.25;;
21769;SDS011;11046;49.558;8.674;2023-06-19T10:35:18;6.68;;;5.30;;
21769;SDS011;11046;49.558;8.674;2023-06-19T10:38:21;5.53;;;5.03;;
21769;SDS011;11046;49.558;8.674;2023-06-19T10:41:25;5.28;;;4.78;;
21769;SDS011;11046;49.558;8.674;2023-06-19T10:44:26;6.88;;;5.25;;
21769;SDS011;11046;49.558;8.674;2023-06-19T10:47:26;5.25;;;4.75;;
21769;SDS011;11046;49.558;8.674;2023-06-19T10:50:28;5.18;;;4.60;;
21769;SDS011;11046;49.558;8.674;2023-06-19T10:53:32;6.97;;;4.50;;
21769;SDS011;11046;49.558;8.674;2023-06-19T10:56:33;6.10;;;4.95;;
21769;SDS011;11046;49.558;8.674;2023-06-19T10:59:34;7.18;;;4.85;;
21769;SDS011;11046;49.558;8.674;2023-06-19T11:02:35;5.45;;;4.90;;
21769;SDS011;11046;49.558;8.674;2023-06-19T11:05:37;6.13;;;4.95;;
21769;SDS011;11046;49.558;8.674;2023-06-19T11:08:50;5.20;;;4.20;;
21769;SDS011;11046;49.558;8.674;2023-06-19T11:11:51;5.38;;;4.65;;
21769;SDS011;11046;49.558;8.674;2023-06-19T11:14:52;5.97;;;5.30;;
21769;SDS011;11046;49.558;8.674;2023-06-19T11:17:52;5.53;;;4.50;;
21769;SDS011;11046;49.558;8.674;2023-06-19T11:20:53;5.13;;;4.50;;
21769;SDS011;11046;49.558;8.674;2023-06-19T11:23:54;5.47;;;4.63;;
21769;SDS011;11046;49.558;8.674;2023-06-19T11:26:57;4.85;;;4.18;;
21769;SDS011;11046;49.558;8.674;2023-06-19T11:29:59;6.40;;;4.35;;
21769;SDS011;11046;49.558;8.674;2023-06-19T11:32:59;5.20;;;4.60;;
21769;SDS011;11046;49.558;8.674;2023-06-19T11:36:02;7.13;;;4.40;;
21769;SDS011;11046;49.558;8.674;2023-06-19T11:39:04;13.05;;;4.90;;
21769;SDS011;11046;49.558;8.674;2023-06-19T11:42:09;4.68;;;3.40;;
21769;SDS011;11046;49.558;8.674;2023-06-19T11:45:10;4.28;;;3.88;;
21769;SDS011;11046;49.558;8.674;2023-06-19T11:48:11;5.47;;;3.63;;
21769;SDS011;11046;49.558;8.674;2023-06-19T11:51:13;4.07;;;3.75;;
21769;SDS011;11046;49.558;8.674;2023-06-19T11:54:17;5.93;;;4.07;;
21769;SDS011;11046;49.558;8.674;2023-06-19T11:57:18;6.47;;;4.00;;
21769;SDS011;11046;49.558;8.674;2023-06-19T12:00:18;4.40;;;4.00;;
21769;SDS011;11046;49.558;8.674;2023-06-19T12:03:19;4.13;;;3.72;;
21769;SDS011;11046;49.558;8.674;2023-06-19T12:06:20;5.22;;;3.80;;
21769;SDS011;11046;49.558;8.674;2023-06-19T12:09:21;3.75;;;3.42;;
21769;SDS011;11046;49.558;8.674;2023-06-19T12:12:22;4.25;;;3.85;;
21769;SDS011;11046;49.558;8.674;2023-06-19T12:15:23;4.85;;;3.78;;
21769;SDS011;11046;49.558;8.674;2023-06-19T12:18:24;7.78;;;3.75;;
21769;SDS011;11046;49.558;8.674;2023-06-19T12:21:25;4.45;;;3.63;;
21769;SDS011;11046;49.558;8.674;2023-06-19T12:24:25;5.32;;;3.55;;
21769;SDS011;11046;49.558;8.674;2023-06-19T12:27:26;3.85;;;3.55;;
21769;SDS011;11046;49.558;8.674;2023-06-19T12:30:26;7.72;;;4.32;;
21769;SDS011;11046;49.558;8.674;2023-06-19T12:33:27;5.20;;;3.83;;
21769;SDS011;11046;49.558;8.674;2023-06-19T12:36:31;6.32;;;4.10;;
21769;SDS011;11046;49.558;8.674;2023-06-19T12:39:32;9.10;;;4.00;;
21769;SDS011;11046;49.558;8.674;2023-06-19T12:42:32;4.15;;;3.70;;
21769;SDS011;11046;49.558;8.674;2023-06-19T12:45:33;4.20;;;3.80;;
21769;SDS011;11046;49.558;8.674;2023-06-19T12:48:34;8.07;;;4.10;;
21769;SDS011;11046;49.558;8.674;2023-06-19T12:51:34;5.50;;;3.90;;
21769;SDS011;11046;49.558;8.674;2023-06-19T12:54:35;3.97;;;3.65;;
21769;SDS011;11046;49.558;8.674;2023-06-19T12:57:36;5.63;;;3.72;;
21769;SDS011;11046;49.558;8.674;2023-06-19T13:00:37;6.13;;;3.85;;
21769;SDS011;11046;49.558;8.674;2023-06-19T13:03:37;10.48;;;3.80;;
21769;SDS011;11046;49.558;8.674;2023-06-19T13:06:38;4.85;;;4.20;;
21769;SDS011;11046;49.558;8.674;2023-06-19T13:09:39;5.13;;;3.80;;
21769;SDS011;11046;49.558;8.674;2023-06-19T13:12:40;5.90;;;4.03;;
21769;SDS011;11046;49.558;8.674;2023-06-19T13:15:40;3.88;;;3.50;;
21769;SDS011;11046;49.558;8.674;2023-06-19T13:18:41;6.50;;;3.90;;
21769;SDS011;11046;49.558;8.674;2023-06-19T13:21:42;11.27;;;3.50;;
21769;SDS011;11046;49.558;8.674;2023-06-19T13:24:43;4.63;;;3.42;;
21769;SDS011;11046;49.558;8.674;2023-06-19T13:27:43;4.47;;;3.40;;
21769;SDS011;11046;49.558;8.674;2023-06-19T13:30:44;5.30;;;3.88;;
21769;SDS011;11046;49.558;8.674;2023-06-19T13:33:44;5.72;;;3.70;;
21769;SDS011;11046;49.558;8.674;2023-06-19T13:36:45;6.13;;;4.00;;
21769;SDS011;11046;49.558;8.674;2023-06-19T13:39:47;4.22;;;3.83;;
21769;SDS011;11046;49.558;8.674;2023-06-19T13:42:48;5.95;;;3.65;;
21769;SDS011;11046;49.558;8.674;2023-06-19T13:45:48;5.28;;;3.97;;
21769;SDS011;11046;49.558;8.674;2023-06-19T13:48:49;3.83;;;3.38;;
21769;SDS011;11046;49.558;8.674;2023-06-19T13:51:51;3.85;;;3.28;;
21769;SDS011;11046;49.558;8.674;2023-06-19T13:54:51;4.35;;;3.95;;
21769;SDS011;11046;49.558;8.674;2023-06-19T13:57:52;3.83;;;3.40;;
21769;SDS011;11046;49.558;8.674;2023-06-19T14:00:53;4.40;;;3.78;;
21769;SDS011;11046;49.558;8.674;2023-06-19T14:03:53;4.28;;;3.30;;
21769;SDS011;11046;49.558;8.674;2023-06-19T14:06:54;4.75;;;3.40;;
21769;SDS011;11046;49.558;8.674;2023-06-19T14:09:54;3.80;;;3.50;;
21769;SDS011;11046;49.558;8.674;2023-06-19T14:12:58;4.15;;;3.72;;
21769;SDS011;11046;49.558;8.674;2023-06-19T14:15:58;5.97;;;4.07;;
21769;SDS011;11046;49.558;8.674;2023-06-19T14:18:59;4.28;;;3.88;;
21769;SDS011;11046;49.558;8.674;2023-06-19T14:21:59;3.92;;;3.53;;
21769;SDS011;11046;49.558;8.674;2023-06-19T14:25:01;7.60;;;4.10;;
21769;SDS011;11046;49.558;8.674;2023-06-19T14:28:03;4.63;;;3.83;;
21769;SDS011;11046;49.558;8.674;2023-06-19T14:31:04;3.90;;;3.53;;
21769;SDS011;11046;49.558;8.674;2023-06-19T14:34:05;4.57;;;4.18;;
21769;SDS011;11046;49.558;8.674;2023-06-19T14:37:06;4.32;;;3.40;;
21769;SDS011;11046;49.558;8.674;2023-06-19T14:40:07;4.32;;;3.97;;
21769;SDS011;11046;49.558;8.674;2023-06-19T14:43:08;8.95;;;4.25;;
21769;SDS011;11046;49.558;8.674;2023-06-19T14:46:11;4.47;;;4.07;;
21769;SDS011;11046;49.558;8.674;2023-06-19T14:49:12;7.65;;;4.03;;
21769;SDS011;11046;49.558;8.674;2023-06-19T14:52:13;6.78;;;4.40;;
21769;SDS011;11046;49.558;8.674;2023-06-19T14:55:15;7.03;;;3.90;;
21769;SDS011;11046;49.558;8.674;2023-06-19T14:58:16;7.95;;;3.70;;
21769;SDS011;11046;49.558;8.674;2023-06-19T15:01:17;5.22;;;3.90;;
21769;SDS011;11046;49.558;8.674;2023-06-19T15:04:17;3.80;;;3.50;;
21769;SDS011;11046;49.558;8.674;2023-06-19T15:07:18;4.20;;;3.90;;
21769;SDS011;11046;49.558;8.674;2023-06-19T15:10:19;4.47;;;3.85;;
21769;SDS011;11046;49.558;8.674;2023-06-19T15:13:19;4.00;;;3.60;;
21769;SDS011;11046;49.558;8.674;2023-06-19T15:16:20;4.55;;;3.90;;
21769;SDS011;11046;49.558;8.674;2023-06-19T15:19:22;4.65;;;3.65;;
21769;SDS011;11046;49.558;8.674;2023-06-19T15:22:23;4.72;;;4.22;;
21769;SDS011;11046;49.558;8.674;2023-06-19T15:25:24;6.40;;;4.22;;
21769;SDS011;11046;49.558;8.674;2023-06-19T15:28:25;4.28;;;3.90;;
21769;SDS011;11046;49.558;8.674;2023-06-19T15:31:25;4.90;;;3.88;;
21769;SDS011;11046;49.558;8.674;2023-06-19T15:34:26;4.75;;;3.70;;
21769;SDS011;11046;49.558;8.674;2023-06-19T15:37:26;4.53;;;4.13;;
21769;SDS011;11046;49.558;8.674;2023-06-19T15:40:28;4.65;;;3.90;;
21769;SDS011;11046;49.558;8.674;2023-06-19T15:43:28;4.75;;;4.25;;
21769;SDS011;11046;49.558;8.674;2023-06-19T15:46:30;5.32;;;4.30;;
21769;SDS011;11046;49.558;8.674;2023-06-19T15:49:31;4.55;;;4.13;;
21769;SDS011;11046;49.558;8.674;2023-06-19T15:52:31;7.97;;;4.55;;
21769;SDS011;11046;49.558;8.674;2023-06-19T15:55:32;6.85;;;4.72;;
21769;SDS011;11046;49.558;8.674;2023-06-19T15:58:33;4.90;;;4.40;;
21769;SDS011;11046;49.558;8.674;2023-06-19T16:01:33;4.78;;;4.38;;
21769;SDS011;11046;49.558;8.674;2023-06-19T16:04:34;5.75;;;3.83;;
21769;SDS011;11046;49.558;8.674;2023-06-19T16:07:35;4.53;;;4.13;;
21769;SDS011;11046;49.558;8.674;2023-06-19T16:10:35;5.43;;;4.35;;
21769;SDS011;11046;49.558;8.674;2023-06-19T16:13:36;4.22;;;3.85;;
21769;SDS011;11046;49.558;8.674;2023-06-19T16:16:36;7.90;;;4.28;;
21769;SDS011;11046;49.558;8.674;2023-06-19T16:19:37;4.95;;;4.40;;
21769;SDS011;11046;49.558;8.674;2023-06-19T16:22:38;4.68;;;4.28;;
21769;SDS011;11046;49.558;8.674;2023-06-19T16:25:39;4.88;;;4.25;;
21769;SDS011;11046;49.558;8.674;2023-06-19T16:28:40;4.95;;;4.28;;
21769;SDS011;11046;49.558;8.674;2023-06-19T16:31:40;4.95;;;4.30;;
21769;SDS011;11046;49.558;8.674;2023-06-19T16:34:42;5.55;;;4.68;;
21769;SDS011;11046;49.558;8.674;2023-06-19T16:37:42;4.88;;;4.38;;
21769;SDS011;11046;49.558;8.674;2023-06-19T16:40:43;7.75;;;4.07;;
21769;SDS011;11046;49.558;8.674;2023-06-19T16:43:44;5.38;;;4.07;;
21769;SDS011;11046;49.558;8.674;2023-06-19T16:46:44;6.75;;;4.40;;
21769;SDS011;11046;49.558;8.674;2023-06-19T16:49:45;5.70;;;4.85;;
21769;SDS011;11046;49.558;8.674;2023-06-19T16:52:45;5.35;;;4.70;;
21769;SDS011;11046;49.558;8.674;2023-06-19T16:55:48;4.85;;;4.38;;
21769;SDS011;11046;49.558;8.674;2023-06-19T16:58:49;5.40;;;4.82;;
21769;SDS011;11046;49.558;8.674;2023-06-19T17:01:50;5.85;;;4.40;;
21769;SDS011;11046;49.558;8.674;2023-06-19T17:04:50;4.65;;;4.25;;
21769;SDS011;11046;49.558;8.674;2023-06-19T17:07:51;5.95;;;4.65;;
21769;SDS011;11046;49.558;8.674;2023-06-19T17:10:52;6.13;;;4.85;;
21769;SDS011;11046;49.558;8.674;2023-06-19T17:13:52;7.75;;;4.40;;
21769;SDS011;11046;49.558;8.674;2023-06-19T17:16:53;4.63;;;4.22;;
21769;SDS011;11046;49.558;8.674;2023-06-19T17:19:54;5.45;;;4.45;;
21769;SDS011;11046;49.558;8.674;2023-06-19T17:22:56;5.47;;;4.43;;
21769;SDS011;11046;49.558;8.674;2023-06-19T17:26:03;4.80;;;4.30;;
21769;SDS011;11046;49.558;8.674;2023-06-19T17:29:03;6.07;;;4.70;;
21769;SDS011;11046;49.558;8.674;2023-06-19T17:32:05;4.60;;;4.20;;
21769;SDS011;11046;49.558;8.674;2023-06-19T17:35:06;7.63;;;4.55;;
21769;SDS011;11046;49.558;8.674;2023-06-19T17:38:09;6.82;;;4.57;;
21769;SDS011;11046;49.558;8.674;2023-06-19T17:41:09;7.60;;;4.47;;
21769;SDS011;11046;49.558;8.674;2023-06-19T17:44:10;6.50;;;4.30;;
21769;SDS011;11046;49.558;8.674;2023-06-19T17:47:10;6.05;;;5.00;;
21769;SDS011;11046;49.558;8.674;2023-06-19T17:50:12;4.70;;;4.30;;
21769;SDS011;11046;49.558;8.674;2023-06-19T17:53:13;5.25;;;4.75;;
21769;SDS011;11046;49.558;8.674;2023-06-19T17:56:14;9.15;;;4.70;;
21769;SDS011;11046;49.558;8.674;2023-06-19T17:59:16;5.30;;;4.40;;
21769;SDS011;11046;49.558;8.674;2023-06-19T18:02:17;4.70;;;4.28;;
21769;SDS011;11046;49.558;8.674;2023-06-19T18:05:17;5.13;;;4.53;;
21769;SDS011;11046;49.558;8.674;2023-06-19T18:08:18;5.10;;;4.60;;
21769;SDS011;11046;49.558;8.674;2023-06-19T18:11:18;5.55;;;4.68;;
21769;SDS011;11046;49.558;8.674;2023-06-19T18:14:19;7.32;;;4.50;;
21769;SDS011;11046;49.558;8.674;2023-06-19T18:17:24;5.95;;;5.18;;